Portada
METAR-TAF:

METAR-TAF

Aeroports :

São Paulo, São Paulo, Brasil

latitud: 23-31S, longitud: 046-38W, altitud: 722 m

Observació

L'informe es va fer fa 37 minuts, a les 21:00 UTC
Vent 7 kt del Sud-Est
Temperatura 21°C
Humitat 73%
Pressió 1012 hPa
Visibilitat 10 km o més
Escasses núvols a una alçada de 2300 ft
Cel ennuvolat a una alçada de 3500 ft

METAR: SBMT 062100Z 13007KT 9999 FEW023 BKN035 21/16 Q1012

Hora: 18:37 (21:37 UTC)


TAF: manca

Observacions i pronòstics meteorològics de més de 4000 aeroports (METAR i TAF).

Les estacions disponibles són els punts grocs i vermells al mapa.

Posi el ratolí al punt desitjat per veure el nom de l'estació.

Feu clic per veure les observacions i els pronòstics meteorològics.

Per canviar el mapa: feu clic els botons verds amb una creu de color negre per apropar; al botó verd amb un guió per allunyar la imatge; o en les fletxes verdes per a mapes adjacents.


METAR-TAF: